sensor_id;sensor_type;location;lat;lon;timestamp;P1;durP1;ratioP1;P2;durP2;ratioP2
70800;SDS011;59616;52.170;5.386;2023-03-14T00:00:55;17.45;;;4.57;;
70800;SDS011;59616;52.170;5.386;2023-03-14T00:03:23;19.88;;;3.83;;
70800;SDS011;59616;52.170;5.386;2023-03-14T00:05:50;22.40;;;4.47;;
70800;SDS011;59616;52.170;5.386;2023-03-14T00:08:17;21.73;;;4.45;;
70800;SDS011;59616;52.170;5.386;2023-03-14T00:10:45;17.25;;;3.65;;
70800;SDS011;59616;52.170;5.386;2023-03-14T00:13:12;20.58;;;3.95;;
70800;SDS011;59616;52.170;5.386;2023-03-14T00:15:39;15.77;;;3.30;;
70800;SDS011;59616;52.170;5.386;2023-03-14T00:18:07;14.05;;;3.20;;
70800;SDS011;59616;52.170;5.386;2023-03-14T00:20:34;14.38;;;3.33;;
70800;SDS011;59616;52.170;5.386;2023-03-14T00:23:01;14.50;;;3.15;;
70800;SDS011;59616;52.170;5.386;2023-03-14T00:25:29;23.77;;;3.60;;
70800;SDS011;59616;52.170;5.386;2023-03-14T00:27:56;17.70;;;4.07;;
70800;SDS011;59616;52.170;5.386;2023-03-14T00:30:23;15.15;;;3.08;;
70800;SDS011;59616;52.170;5.386;2023-03-14T00:32:50;17.67;;;3.30;;
70800;SDS011;59616;52.170;5.386;2023-03-14T00:35:17;20.38;;;3.30;;
70800;SDS011;59616;52.170;5.386;2023-03-14T00:37:45;19.10;;;3.30;;
70800;SDS011;59616;52.170;5.386;2023-03-14T00:40:12;13.60;;;2.88;;
70800;SDS011;59616;52.170;5.386;2023-03-14T00:42:39;20.63;;;3.08;;
70800;SDS011;59616;52.170;5.386;2023-03-14T00:45:06;14.23;;;2.67;;
70800;SDS011;59616;52.170;5.386;2023-03-14T00:47:34;18.05;;;2.50;;
70800;SDS011;59616;52.170;5.386;2023-03-14T00:50:02;12.70;;;2.40;;
70800;SDS011;59616;52.170;5.386;2023-03-14T00:52:29;9.60;;;1.95;;
70800;SDS011;59616;52.170;5.386;2023-03-14T00:54:56;19.55;;;2.05;;
70800;SDS011;59616;52.170;5.386;2023-03-14T00:57:23;13.10;;;2.17;;
70800;SDS011;59616;52.170;5.386;2023-03-14T00:59:50;8.32;;;1.80;;
70800;SDS011;59616;52.170;5.386;2023-03-14T01:02:18;9.32;;;2.08;;
70800;SDS011;59616;52.170;5.386;2023-03-14T01:04:47;14.75;;;2.25;;
70800;SDS011;59616;52.170;5.386;2023-03-14T01:07:15;11.13;;;2.38;;
70800;SDS011;59616;52.170;5.386;2023-03-14T01:09:42;7.30;;;1.65;;
70800;SDS011;59616;52.170;5.386;2023-03-14T01:12:09;16.25;;;2.05;;
70800;SDS011;59616;52.170;5.386;2023-03-14T01:14:36;12.05;;;2.03;;
70800;SDS011;59616;52.170;5.386;2023-03-14T01:17:03;10.63;;;2.03;;
70800;SDS011;59616;52.170;5.386;2023-03-14T01:19:30;11.13;;;1.80;;
70800;SDS011;59616;52.170;5.386;2023-03-14T01:21:58;12.93;;;2.03;;
70800;SDS011;59616;52.170;5.386;2023-03-14T01:24:25;9.38;;;2.55;;
70800;SDS011;59616;52.170;5.386;2023-03-14T01:26:52;9.68;;;2.15;;
70800;SDS011;59616;52.170;5.386;2023-03-14T01:29:19;9.45;;;1.83;;
70800;SDS011;59616;52.170;5.386;2023-03-14T01:31:46;9.35;;;1.80;;
70800;SDS011;59616;52.170;5.386;2023-03-14T01:34:14;11.90;;;2.30;;
70800;SDS011;59616;52.170;5.386;2023-03-14T01:36:41;11.90;;;2.25;;
70800;SDS011;59616;52.170;5.386;2023-03-14T01:39:08;7.40;;;1.50;;
70800;SDS011;59616;52.170;5.386;2023-03-14T01:41:36;13.27;;;1.95;;
70800;SDS011;59616;52.170;5.386;2023-03-14T01:44:03;12.25;;;1.88;;
70800;SDS011;59616;52.170;5.386;2023-03-14T01:46:38;8.43;;;1.65;;
70800;SDS011;59616;52.170;5.386;2023-03-14T01:51:59;10.13;;;1.70;;
70800;SDS011;59616;52.170;5.386;2023-03-14T01:59:35;8.23;;;1.83;;
70800;SDS011;59616;52.170;5.386;2023-03-14T02:02:04;10.70;;;1.33;;
70800;SDS011;59616;52.170;5.386;2023-03-14T02:04:34;9.88;;;1.70;;
70800;SDS011;59616;52.170;5.386;2023-03-14T02:07:16;7.32;;;1.20;;
70800;SDS011;59616;52.170;5.386;2023-03-14T02:09:54;9.55;;;1.60;;
70800;SDS011;59616;52.170;5.386;2023-03-14T02:12:26;8.93;;;1.30;;
70800;SDS011;59616;52.170;5.386;2023-03-14T02:15:08;12.00;;;1.83;;
70800;SDS011;59616;52.170;5.386;2023-03-14T02:17:50;9.27;;;1.60;;
70800;SDS011;59616;52.170;5.386;2023-03-14T02:20:38;5.90;;;1.70;;
70800;SDS011;59616;52.170;5.386;2023-03-14T02:23:07;7.57;;;1.45;;
70800;SDS011;59616;52.170;5.386;2023-03-14T02:25:39;11.32;;;1.80;;
70800;SDS011;59616;52.170;5.386;2023-03-14T02:28:08;7.38;;;1.40;;
70800;SDS011;59616;52.170;5.386;2023-03-14T02:30:36;14.40;;;1.45;;
70800;SDS011;59616;52.170;5.386;2023-03-14T02:35:35;10.90;;;1.73;;
70800;SDS011;59616;52.170;5.386;2023-03-14T02:38:06;10.98;;;1.40;;
70800;SDS011;59616;52.170;5.386;2023-03-14T02:40:42;5.07;;;1.35;;
70800;SDS011;59616;52.170;5.386;2023-03-14T02:43:10;5.97;;;1.42;;
70800;SDS011;59616;52.170;5.386;2023-03-14T02:45:43;7.70;;;1.50;;
70800;SDS011;59616;52.170;5.386;2023-03-14T02:48:16;9.32;;;1.25;;
70800;SDS011;59616;52.170;5.386;2023-03-14T02:50:45;7.20;;;1.50;;
70800;SDS011;59616;52.170;5.386;2023-03-14T02:53:15;6.57;;;1.55;;
70800;SDS011;59616;52.170;5.386;2023-03-14T02:55:47;7.20;;;1.40;;
70800;SDS011;59616;52.170;5.386;2023-03-14T02:58:17;6.63;;;1.38;;
70800;SDS011;59616;52.170;5.386;2023-03-14T03:00:46;8.75;;;1.60;;
70800;SDS011;59616;52.170;5.386;2023-03-14T03:03:14;6.20;;;1.40;;
70800;SDS011;59616;52.170;5.386;2023-03-14T03:05:41;6.47;;;1.42;;
70800;SDS011;59616;52.170;5.386;2023-03-14T03:08:10;11.30;;;2.25;;
70800;SDS011;59616;52.170;5.386;2023-03-14T03:10:37;9.52;;;2.03;;
70800;SDS011;59616;52.170;5.386;2023-03-14T03:13:06;6.78;;;1.50;;
70800;SDS011;59616;52.170;5.386;2023-03-14T03:15:33;13.27;;;1.90;;
70800;SDS011;59616;52.170;5.386;2023-03-14T03:18:00;14.40;;;2.08;;
70800;SDS011;59616;52.170;5.386;2023-03-14T03:20:27;12.57;;;2.45;;
70800;SDS011;59616;52.170;5.386;2023-03-14T03:22:54;8.13;;;2.17;;
70800;SDS011;59616;52.170;5.386;2023-03-14T03:25:21;12.73;;;2.00;;
70800;SDS011;59616;52.170;5.386;2023-03-14T03:27:49;13.25;;;1.80;;
70800;SDS011;59616;52.170;5.386;2023-03-14T03:30:17;12.13;;;2.22;;
70800;SDS011;59616;52.170;5.386;2023-03-14T03:32:45;13.02;;;2.33;;
70800;SDS011;59616;52.170;5.386;2023-03-14T03:35:12;9.23;;;2.22;;
70800;SDS011;59616;52.170;5.386;2023-03-14T03:37:40;7.82;;;1.70;;
70800;SDS011;59616;52.170;5.386;2023-03-14T03:40:07;12.82;;;1.98;;
70800;SDS011;59616;52.170;5.386;2023-03-14T03:42:35;6.70;;;1.75;;
70800;SDS011;59616;52.170;5.386;2023-03-14T03:45:06;8.85;;;1.85;;
70800;SDS011;59616;52.170;5.386;2023-03-14T03:47:37;13.23;;;1.90;;
70800;SDS011;59616;52.170;5.386;2023-03-14T03:50:04;12.23;;;2.47;;
70800;SDS011;59616;52.170;5.386;2023-03-14T03:52:31;10.07;;;1.95;;
70800;SDS011;59616;52.170;5.386;2023-03-14T03:54:58;15.23;;;2.78;;
70800;SDS011;59616;52.170;5.386;2023-03-14T03:57:27;11.32;;;1.92;;
70800;SDS011;59616;52.170;5.386;2023-03-14T03:59:55;12.40;;;1.88;;
70800;SDS011;59616;52.170;5.386;2023-03-14T04:02:22;10.18;;;2.38;;
70800;SDS011;59616;52.170;5.386;2023-03-14T04:04:50;7.13;;;1.45;;
70800;SDS011;59616;52.170;5.386;2023-03-14T04:07:17;7.57;;;1.67;;
70800;SDS011;59616;52.170;5.386;2023-03-14T04:09:45;11.02;;;1.92;;
70800;SDS011;59616;52.170;5.386;2023-03-14T04:12:31;9.27;;;1.67;;
70800;SDS011;59616;52.170;5.386;2023-03-14T04:15:18;9.70;;;2.28;;
70800;SDS011;59616;52.170;5.386;2023-03-14T04:17:49;8.43;;;1.50;;
70800;SDS011;59616;52.170;5.386;2023-03-14T04:20:16;13.85;;;2.00;;
70800;SDS011;59616;52.170;5.386;2023-03-14T04:22:43;9.88;;;1.65;;
70800;SDS011;59616;52.170;5.386;2023-03-14T04:25:11;8.38;;;1.60;;
70800;SDS011;59616;52.170;5.386;2023-03-14T04:27:43;7.95;;;1.40;;
70800;SDS011;59616;52.170;5.386;2023-03-14T04:30:21;11.48;;;1.67;;
70800;SDS011;59616;52.170;5.386;2023-03-14T04:32:57;10.98;;;1.58;;
70800;SDS011;59616;52.170;5.386;2023-03-14T04:35:26;10.30;;;1.50;;
70800;SDS011;59616;52.170;5.386;2023-03-14T04:37:58;8.80;;;1.73;;
70800;SDS011;59616;52.170;5.386;2023-03-14T04:40:26;8.63;;;1.80;;
70800;SDS011;59616;52.170;5.386;2023-03-14T04:42:58;10.18;;;1.67;;
70800;SDS011;59616;52.170;5.386;2023-03-14T04:45:25;12.20;;;1.65;;
70800;SDS011;59616;52.170;5.386;2023-03-14T04:47:55;7.32;;;1.95;;
70800;SDS011;59616;52.170;5.386;2023-03-14T04:50:22;9.73;;;1.45;;
70800;SDS011;59616;52.170;5.386;2023-03-14T04:52:50;8.82;;;1.67;;
70800;SDS011;59616;52.170;5.386;2023-03-14T04:55:18;10.43;;;1.73;;
70800;SDS011;59616;52.170;5.386;2023-03-14T04:57:45;9.07;;;1.50;;
70800;SDS011;59616;52.170;5.386;2023-03-14T05:00:13;6.30;;;1.45;;
70800;SDS011;59616;52.170;5.386;2023-03-14T05:02:59;12.05;;;2.10;;
70800;SDS011;59616;52.170;5.386;2023-03-14T05:05:35;8.40;;;2.20;;
70800;SDS011;59616;52.170;5.386;2023-03-14T05:08:15;8.45;;;2.03;;
70800;SDS011;59616;52.170;5.386;2023-03-14T05:10:56;8.30;;;1.70;;
70800;SDS011;59616;52.170;5.386;2023-03-14T05:13:43;9.45;;;2.10;;
70800;SDS011;59616;52.170;5.386;2023-03-14T05:16:39;10.10;;;1.80;;
70800;SDS011;59616;52.170;5.386;2023-03-14T05:19:16;11.52;;;2.38;;
70800;SDS011;59616;52.170;5.386;2023-03-14T05:21:57;7.45;;;1.60;;
70800;SDS011;59616;52.170;5.386;2023-03-14T05:24:45;8.95;;;1.95;;
70800;SDS011;59616;52.170;5.386;2023-03-14T05:27:35;10.95;;;2.30;;
70800;SDS011;59616;52.170;5.386;2023-03-14T05:30:24;10.63;;;2.38;;
70800;SDS011;59616;52.170;5.386;2023-03-14T05:33:12;7.35;;;1.77;;
70800;SDS011;59616;52.170;5.386;2023-03-14T05:36:05;8.82;;;2.00;;
70800;SDS011;59616;52.170;5.386;2023-03-14T05:38:51;9.40;;;1.98;;
70800;SDS011;59616;52.170;5.386;2023-03-14T05:41:37;9.23;;;1.90;;
70800;SDS011;59616;52.170;5.386;2023-03-14T05:47:00;7.38;;;1.80;;
70800;SDS011;59616;52.170;5.386;2023-03-14T05:49:42;11.45;;;2.60;;
70800;SDS011;59616;52.170;5.386;2023-03-14T05:52:32;9.00;;;2.20;;
70800;SDS011;59616;52.170;5.386;2023-03-14T05:55:12;10.73;;;2.40;;
70800;SDS011;59616;52.170;5.386;2023-03-14T05:57:58;9.32;;;2.22;;
70800;SDS011;59616;52.170;5.386;2023-03-14T06:03:26;10.73;;;2.75;;
70800;SDS011;59616;52.170;5.386;2023-03-14T06:05:53;10.07;;;3.15;;
70800;SDS011;59616;52.170;5.386;2023-03-14T06:08:22;8.93;;;2.70;;
70800;SDS011;59616;52.170;5.386;2023-03-14T06:10:51;10.98;;;2.55;;
70800;SDS011;59616;52.170;5.386;2023-03-14T06:13:23;12.40;;;3.00;;
70800;SDS011;59616;52.170;5.386;2023-03-14T06:15:50;8.63;;;2.78;;
70800;SDS011;59616;52.170;5.386;2023-03-14T06:18:17;9.93;;;2.85;;
70800;SDS011;59616;52.170;5.386;2023-03-14T06:20:44;13.30;;;3.30;;
70800;SDS011;59616;52.170;5.386;2023-03-14T06:23:19;13.20;;;3.63;;
70800;SDS011;59616;52.170;5.386;2023-03-14T06:25:47;11.32;;;3.97;;
70800;SDS011;59616;52.170;5.386;2023-03-14T06:28:14;14.98;;;3.83;;
70800;SDS011;59616;52.170;5.386;2023-03-14T06:30:41;12.10;;;3.95;;
70800;SDS011;59616;52.170;5.386;2023-03-14T06:33:10;12.13;;;3.75;;
70800;SDS011;59616;52.170;5.386;2023-03-14T06:35:40;10.65;;;3.50;;
70800;SDS011;59616;52.170;5.386;2023-03-14T06:38:07;12.82;;;4.13;;
70800;SDS011;59616;52.170;5.386;2023-03-14T06:40:34;10.90;;;3.30;;
70800;SDS011;59616;52.170;5.386;2023-03-14T06:43:06;8.35;;;2.55;;
70800;SDS011;59616;52.170;5.386;2023-03-14T06:45:35;7.05;;;2.22;;
70800;SDS011;59616;52.170;5.386;2023-03-14T06:48:02;6.45;;;1.30;;
70800;SDS011;59616;52.170;5.386;2023-03-14T06:50:47;6.55;;;1.33;;
70800;SDS011;59616;52.170;5.386;2023-03-14T06:53:14;1.50;;;0.60;;
70800;SDS011;59616;52.170;5.386;2023-03-14T06:55:43;3.15;;;0.60;;
70800;SDS011;59616;52.170;5.386;2023-03-14T06:58:13;2.90;;;0.98;;
70800;SDS011;59616;52.170;5.386;2023-03-14T07:00:43;1.55;;;0.60;;
70800;SDS011;59616;52.170;5.386;2023-03-14T07:03:14;2.42;;;0.70;;
70800;SDS011;59616;52.170;5.386;2023-03-14T07:05:46;2.20;;;0.82;;
70800;SDS011;59616;52.170;5.386;2023-03-14T07:08:13;2.72;;;0.90;;
70800;SDS011;59616;52.170;5.386;2023-03-14T07:10:40;2.50;;;0.70;;
70800;SDS011;59616;52.170;5.386;2023-03-14T07:13:08;2.63;;;0.75;;
70800;SDS011;59616;52.170;5.386;2023-03-14T07:15:46;1.73;;;0.70;;
70800;SDS011;59616;52.170;5.386;2023-03-14T07:18:13;1.38;;;0.68;;
70800;SDS011;59616;52.170;5.386;2023-03-14T07:20:41;3.03;;;0.60;;
70800;SDS011;59616;52.170;5.386;2023-03-14T07:23:08;3.03;;;0.82;;
70800;SDS011;59616;52.170;5.386;2023-03-14T07:25:44;1.80;;;0.80;;
70800;SDS011;59616;52.170;5.386;2023-03-14T07:28:12;3.50;;;0.90;;
70800;SDS011;59616;52.170;5.386;2023-03-14T07:30:41;4.80;;;0.90;;
70800;SDS011;59616;52.170;5.386;2023-03-14T07:33:14;4.30;;;0.82;;
70800;SDS011;59616;52.170;5.386;2023-03-14T07:35:42;3.58;;;1.00;;
70800;SDS011;59616;52.170;5.386;2023-03-14T07:38:09;3.38;;;0.98;;
70800;SDS011;59616;52.170;5.386;2023-03-14T07:40:46;2.17;;;0.95;;
70800;SDS011;59616;52.170;5.386;2023-03-14T07:43:13;2.70;;;0.88;;
70800;SDS011;59616;52.170;5.386;2023-03-14T07:45:45;4.20;;;1.00;;
70800;SDS011;59616;52.170;5.386;2023-03-14T07:48:16;2.50;;;0.68;;
70800;SDS011;59616;52.170;5.386;2023-03-14T07:50:43;2.13;;;0.65;;
70800;SDS011;59616;52.170;5.386;2023-03-14T07:53:10;4.68;;;1.00;;
70800;SDS011;59616;52.170;5.386;2023-03-14T07:55:38;2.78;;;0.85;;
70800;SDS011;59616;52.170;5.386;2023-03-14T07:58:06;1.80;;;0.63;;
70800;SDS011;59616;52.170;5.386;2023-03-14T08:00:33;3.55;;;1.05;;
70800;SDS011;59616;52.170;5.386;2023-03-14T08:03:00;5.75;;;0.95;;
70800;SDS011;59616;52.170;5.386;2023-03-14T08:05:27;8.32;;;0.88;;
70800;SDS011;59616;52.170;5.386;2023-03-14T08:07:55;6.10;;;1.15;;
70800;SDS011;59616;52.170;5.386;2023-03-14T08:10:22;8.30;;;1.05;;
70800;SDS011;59616;52.170;5.386;2023-03-14T08:12:49;4.20;;;0.55;;
70800;SDS011;59616;52.170;5.386;2023-03-14T08:15:17;2.97;;;0.60;;
70800;SDS011;59616;52.170;5.386;2023-03-14T08:17:44;6.20;;;0.90;;
70800;SDS011;59616;52.170;5.386;2023-03-14T08:20:11;6.85;;;1.23;;
70800;SDS011;59616;52.170;5.386;2023-03-14T08:22:39;5.78;;;0.70;;
70800;SDS011;59616;52.170;5.386;2023-03-14T08:25:06;3.25;;;0.70;;
70800;SDS011;59616;52.170;5.386;2023-03-14T08:27:33;6.55;;;0.80;;
70800;SDS011;59616;52.170;5.386;2023-03-14T08:30:01;4.70;;;0.57;;
70800;SDS011;59616;52.170;5.386;2023-03-14T08:32:28;3.78;;;0.68;;
70800;SDS011;59616;52.170;5.386;2023-03-14T08:34:56;3.38;;;0.68;;
70800;SDS011;59616;52.170;5.386;2023-03-14T08:37:23;1.92;;;0.40;;
70800;SDS011;59616;52.170;5.386;2023-03-14T08:39:52;3.42;;;0.68;;
70800;SDS011;59616;52.170;5.386;2023-03-14T08:42:20;2.58;;;0.40;;
70800;SDS011;59616;52.170;5.386;2023-03-14T08:44:47;0.85;;;0.20;;
70800;SDS011;59616;52.170;5.386;2023-03-14T08:47:14;4.70;;;0.70;;
70800;SDS011;59616;52.170;5.386;2023-03-14T08:49:41;1.42;;;0.30;;
70800;SDS011;59616;52.170;5.386;2023-03-14T08:52:09;3.55;;;0.75;;
70800;SDS011;59616;52.170;5.386;2023-03-14T08:54:36;2.45;;;0.30;;
70800;SDS011;59616;52.170;5.386;2023-03-14T08:57:03;3.70;;;0.60;;
70800;SDS011;59616;52.170;5.386;2023-03-14T08:59:31;3.33;;;1.13;;
70800;SDS011;59616;52.170;5.386;2023-03-14T09:01:58;10.23;;;1.27;;
70800;SDS011;59616;52.170;5.386;2023-03-14T09:04:25;1.60;;;0.60;;
70800;SDS011;59616;52.170;5.386;2023-03-14T09:06:52;7.57;;;0.98;;
70800;SDS011;59616;52.170;5.386;2023-03-14T09:09:20;5.93;;;1.17;;
70800;SDS011;59616;52.170;5.386;2023-03-14T09:11:48;11.60;;;1.35;;
70800;SDS011;59616;52.170;5.386;2023-03-14T09:14:15;6.63;;;1.10;;
70800;SDS011;59616;52.170;5.386;2023-03-14T09:16:42;3.28;;;0.70;;
70800;SDS011;59616;52.170;5.386;2023-03-14T09:19:10;7.93;;;0.82;;
70800;SDS011;59616;52.170;5.386;2023-03-14T09:21:37;7.90;;;1.02;;
70800;SDS011;59616;52.170;5.386;2023-03-14T09:24:05;8.10;;;1.60;;
70800;SDS011;59616;52.170;5.386;2023-03-14T09:26:32;8.90;;;1.05;;
70800;SDS011;59616;52.170;5.386;2023-03-14T09:28:59;10.38;;;1.63;;
70800;SDS011;59616;52.170;5.386;2023-03-14T09:31:26;8.85;;;1.27;;
70800;SDS011;59616;52.170;5.386;2023-03-14T09:33:55;10.50;;;1.17;;
70800;SDS011;59616;52.170;5.386;2023-03-14T09:36:22;9.73;;;1.55;;
70800;SDS011;59616;52.170;5.386;2023-03-14T09:38:49;13.75;;;1.75;;
70800;SDS011;59616;52.170;5.386;2023-03-14T09:43:44;11.77;;;1.77;;
70800;SDS011;59616;52.170;5.386;2023-03-14T09:46:12;6.93;;;1.35;;
70800;SDS011;59616;52.170;5.386;2023-03-14T09:48:40;13.65;;;1.77;;
70800;SDS011;59616;52.170;5.386;2023-03-14T09:51:12;17.27;;;1.77;;
70800;SDS011;59616;52.170;5.386;2023-03-14T09:53:40;11.38;;;1.92;;
70800;SDS011;59616;52.170;5.386;2023-03-14T09:56:28;11.73;;;1.52;;
70800;SDS011;59616;52.170;5.386;2023-03-14T09:58:57;11.63;;;1.15;;
70800;SDS011;59616;52.170;5.386;2023-03-14T10:01:29;14.50;;;1.58;;
70800;SDS011;59616;52.170;5.386;2023-03-14T10:04:00;10.52;;;1.50;;
70800;SDS011;59616;52.170;5.386;2023-03-14T10:06:29;8.48;;;1.10;;
70800;SDS011;59616;52.170;5.386;2023-03-14T10:08:57;12.38;;;1.50;;
70800;SDS011;59616;52.170;5.386;2023-03-14T10:11:24;18.15;;;2.70;;
70800;SDS011;59616;52.170;5.386;2023-03-14T10:16:30;14.55;;;1.80;;
70800;SDS011;59616;52.170;5.386;2023-03-14T10:19:05;15.38;;;1.60;;
70800;SDS011;59616;52.170;5.386;2023-03-14T10:21:42;12.90;;;1.63;;
70800;SDS011;59616;52.170;5.386;2023-03-14T10:24:18;13.43;;;2.00;;
70800;SDS011;59616;52.170;5.386;2023-03-14T10:26:57;11.98;;;1.48;;
70800;SDS011;59616;52.170;5.386;2023-03-14T10:29:27;13.48;;;2.03;;
70800;SDS011;59616;52.170;5.386;2023-03-14T10:34:29;11.80;;;2.00;;
70800;SDS011;59616;52.170;5.386;2023-03-14T10:36:58;8.40;;;1.73;;
70800;SDS011;59616;52.170;5.386;2023-03-14T10:39:30;7.70;;;1.20;;
70800;SDS011;59616;52.170;5.386;2023-03-14T10:45:03;14.45;;;1.77;;
70800;SDS011;59616;52.170;5.386;2023-03-14T10:47:31;12.82;;;2.00;;
70800;SDS011;59616;52.170;5.386;2023-03-14T10:50:45;13.35;;;1.63;;
70800;SDS011;59616;52.170;5.386;2023-03-14T10:52:52;10.35;;;1.67;;
70800;SDS011;59616;52.170;5.386;2023-03-14T10:55:32;13.45;;;2.10;;
70800;SDS011;59616;52.170;5.386;2023-03-14T10:58:17;11.23;;;1.45;;
70800;SDS011;59616;52.170;5.386;2023-03-14T11:00:45;13.15;;;1.83;;
70800;SDS011;59616;52.170;5.386;2023-03-14T11:03:13;19.30;;;2.13;;
70800;SDS011;59616;52.170;5.386;2023-03-14T11:08:11;15.77;;;2.25;;
70800;SDS011;59616;52.170;5.386;2023-03-14T11:10:42;11.00;;;1.58;;
70800;SDS011;59616;52.170;5.386;2023-03-14T11:13:27;16.67;;;1.83;;
70800;SDS011;59616;52.170;5.386;2023-03-14T11:21:18;17.75;;;1.90;;
70800;SDS011;59616;52.170;5.386;2023-03-14T11:26:32;9.50;;;1.40;;
70800;SDS011;59616;52.170;5.386;2023-03-14T11:29:46;13.32;;;1.85;;
70800;SDS011;59616;52.170;5.386;2023-03-14T11:31:51;14.73;;;1.90;;
70800;SDS011;59616;52.170;5.386;2023-03-14T11:34:24;18.27;;;2.30;;
70800;SDS011;59616;52.170;5.386;2023-03-14T11:37:07;18.17;;;1.98;;
70800;SDS011;59616;52.170;5.386;2023-03-14T11:39:39;13.35;;;1.50;;
70800;SDS011;59616;52.170;5.386;2023-03-14T11:42:09;8.32;;;1.48;;
70800;SDS011;59616;52.170;5.386;2023-03-14T11:44:38;7.60;;;1.45;;
70800;SDS011;59616;52.170;5.386;2023-03-14T11:49:43;13.02;;;1.98;;
70800;SDS011;59616;52.170;5.386;2023-03-14T11:52:20;9.18;;;1.75;;
70800;SDS011;59616;52.170;5.386;2023-03-14T11:54:52;13.98;;;1.42;;
70800;SDS011;59616;52.170;5.386;2023-03-14T11:57:21;10.00;;;1.30;;
70800;SDS011;59616;52.170;5.386;2023-03-14T11:59:59;10.85;;;1.48;;
70800;SDS011;59616;52.170;5.386;2023-03-14T12:02:45;12.75;;;1.52;;
70800;SDS011;59616;52.170;5.386;2023-03-14T12:08:05;13.05;;;1.60;;
70800;SDS011;59616;52.170;5.386;2023-03-14T12:10:45;8.15;;;1.15;;
70800;SDS011;59616;52.170;5.386;2023-03-14T12:13:13;7.07;;;1.27;;
70800;SDS011;59616;52.170;5.386;2023-03-14T12:18:26;10.50;;;1.05;;
70800;SDS011;59616;52.170;5.386;2023-03-14T12:20:54;10.38;;;1.38;;
70800;SDS011;59616;52.170;5.386;2023-03-14T12:23:22;11.50;;;1.52;;
70800;SDS011;59616;52.170;5.386;2023-03-14T12:26:06;8.10;;;1.30;;
70800;SDS011;59616;52.170;5.386;2023-03-14T12:28:34;9.70;;;1.25;;
70800;SDS011;59616;52.170;5.386;2023-03-14T12:31:47;8.20;;;1.35;;
70800;SDS011;59616;52.170;5.386;2023-03-14T12:34:04;7.90;;;1.27;;
70800;SDS011;59616;52.170;5.386;2023-03-14T12:39:32;4.38;;;0.77;;
70800;SDS011;59616;52.170;5.386;2023-03-14T12:42:04;9.02;;;1.50;;
70800;SDS011;59616;52.170;5.386;2023-03-14T12:46:59;7.63;;;1.00;;
70800;SDS011;59616;52.170;5.386;2023-03-14T12:49:31;6.95;;;1.15;;
70800;SDS011;59616;52.170;5.386;2023-03-14T12:52:02;9.25;;;1.20;;
70800;SDS011;59616;52.170;5.386;2023-03-14T12:57:33;11.90;;;0.70;;
70800;SDS011;59616;52.170;5.386;2023-03-14T13:00:13;5.68;;;0.90;;
70800;SDS011;59616;52.170;5.386;2023-03-14T13:02:44;6.75;;;1.00;;
70800;SDS011;59616;52.170;5.386;2023-03-14T13:05:13;7.30;;;1.50;;
70800;SDS011;59616;52.170;5.386;2023-03-14T13:12:49;5.10;;;0.88;;
70800;SDS011;59616;52.170;5.386;2023-03-14T13:15:18;7.10;;;0.88;;
70800;SDS011;59616;52.170;5.386;2023-03-14T13:17:47;8.48;;;0.80;;
70800;SDS011;59616;52.170;5.386;2023-03-14T13:20:17;8.20;;;1.42;;
70800;SDS011;59616;52.170;5.386;2023-03-14T13:22:47;5.03;;;0.80;;
70800;SDS011;59616;52.170;5.386;2023-03-14T13:25:15;6.70;;;1.10;;
70800;SDS011;59616;52.170;5.386;2023-03-14T13:27:43;8.98;;;0.80;;
70800;SDS011;59616;52.170;5.386;2023-03-14T13:32:44;4.45;;;0.70;;
70800;SDS011;59616;52.170;5.386;2023-03-14T13:35:16;5.47;;;1.13;;
70800;SDS011;59616;52.170;5.386;2023-03-14T13:37:44;10.63;;;1.00;;
70800;SDS011;59616;52.170;5.386;2023-03-14T13:40:24;10.45;;;1.35;;
70800;SDS011;59616;52.170;5.386;2023-03-14T13:42:59;5.60;;;0.80;;
70800;SDS011;59616;52.170;5.386;2023-03-14T13:45:28;6.65;;;1.17;;
70800;SDS011;59616;52.170;5.386;2023-03-14T13:47:55;4.70;;;0.98;;
70800;SDS011;59616;52.170;5.386;2023-03-14T13:50:22;9.70;;;1.33;;
70800;SDS011;59616;52.170;5.386;2023-03-14T13:52:54;4.85;;;1.10;;
70800;SDS011;59616;52.170;5.386;2023-03-14T13:55:23;5.93;;;0.90;;
70800;SDS011;59616;52.170;5.386;2023-03-14T13:57:51;17.63;;;1.42;;
70800;SDS011;59616;52.170;5.386;2023-03-14T14:00:23;15.77;;;2.00;;
70800;SDS011;59616;52.170;5.386;2023-03-14T14:02:53;6.70;;;1.10;;
70800;SDS011;59616;52.170;5.386;2023-03-14T14:05:22;7.40;;;1.42;;
70800;SDS011;59616;52.170;5.386;2023-03-14T14:07:49;8.05;;;0.88;;
70800;SDS011;59616;52.170;5.386;2023-03-14T14:10:18;9.30;;;1.92;;
70800;SDS011;59616;52.170;5.386;2023-03-14T14:12:49;5.88;;;1.13;;
70800;SDS011;59616;52.170;5.386;2023-03-14T14:15:20;6.63;;;1.25;;
70800;SDS011;59616;52.170;5.386;2023-03-14T14:17:52;5.50;;;1.00;;
70800;SDS011;59616;52.170;5.386;2023-03-14T14:20:24;5.53;;;0.95;;
70800;SDS011;59616;52.170;5.386;2023-03-14T14:22:58;11.63;;;1.42;;
70800;SDS011;59616;52.170;5.386;2023-03-14T14:25:26;8.35;;;1.30;;
70800;SDS011;59616;52.170;5.386;2023-03-14T14:27:53;8.30;;;1.35;;
70800;SDS011;59616;52.170;5.386;2023-03-14T14:32:48;7.85;;;0.85;;
70800;SDS011;59616;52.170;5.386;2023-03-14T14:35:26;6.25;;;1.10;;
70800;SDS011;59616;52.170;5.386;2023-03-14T14:37:57;5.68;;;1.50;;
70800;SDS011;59616;52.170;5.386;2023-03-14T14:40:28;12.10;;;1.17;;
70800;SDS011;59616;52.170;5.386;2023-03-14T14:43:03;5.47;;;1.13;;
70800;SDS011;59616;52.170;5.386;2023-03-14T14:45:30;5.78;;;1.02;;
70800;SDS011;59616;52.170;5.386;2023-03-14T14:50:29;5.10;;;0.77;;
70800;SDS011;59616;52.170;5.386;2023-03-14T14:52:57;6.25;;;1.00;;
70800;SDS011;59616;52.170;5.386;2023-03-14T14:55:29;3.40;;;0.80;;
70800;SDS011;59616;52.170;5.386;2023-03-14T14:58:09;4.05;;;0.88;;
70800;SDS011;59616;52.170;5.386;2023-03-14T15:00:39;4.43;;;0.60;;
70800;SDS011;59616;52.170;5.386;2023-03-14T15:03:10;7.40;;;1.23;;
70800;SDS011;59616;52.170;5.386;2023-03-14T15:05:39;6.47;;;1.00;;
70800;SDS011;59616;52.170;5.386;2023-03-14T15:08:08;4.45;;;0.52;;
70800;SDS011;59616;52.170;5.386;2023-03-14T15:10:35;4.43;;;1.40;;
70800;SDS011;59616;52.170;5.386;2023-03-14T15:13:03;5.38;;;0.80;;
70800;SDS011;59616;52.170;5.386;2023-03-14T15:15:30;7.43;;;0.93;;
70800;SDS011;59616;52.170;5.386;2023-03-14T15:17:57;7.13;;;1.52;;
70800;SDS011;59616;52.170;5.386;2023-03-14T15:20:24;6.07;;;1.10;;
70800;SDS011;59616;52.170;5.386;2023-03-14T15:22:51;7.13;;;1.27;;
70800;SDS011;59616;52.170;5.386;2023-03-14T15:25:19;3.67;;;0.70;;
70800;SDS011;59616;52.170;5.386;2023-03-14T15:28:14;6.55;;;0.93;;
70800;SDS011;59616;52.170;5.386;2023-03-14T15:30:44;7.65;;;1.50;;
70800;SDS011;59616;52.170;5.386;2023-03-14T15:33:11;5.38;;;1.10;;
70800;SDS011;59616;52.170;5.386;2023-03-14T15:35:38;7.57;;;1.10;;
70800;SDS011;59616;52.170;5.386;2023-03-14T15:38:09;8.02;;;1.02;;
70800;SDS011;59616;52.170;5.386;2023-03-14T15:40:37;2.50;;;0.95;;
70800;SDS011;59616;52.170;5.386;2023-03-14T15:43:04;8.82;;;2.67;;
70800;SDS011;59616;52.170;5.386;2023-03-14T15:45:31;6.07;;;0.93;;
70800;SDS011;59616;52.170;5.386;2023-03-14T15:47:58;8.18;;;1.02;;
70800;SDS011;59616;52.170;5.386;2023-03-14T15:50:26;12.40;;;1.20;;
70800;SDS011;59616;52.170;5.386;2023-03-14T15:52:53;3.50;;;0.70;;
70800;SDS011;59616;52.170;5.386;2023-03-14T15:55:22;5.25;;;1.17;;
70800;SDS011;59616;52.170;5.386;2023-03-14T15:57:49;7.88;;;0.93;;
70800;SDS011;59616;52.170;5.386;2023-03-14T16:00:18;7.35;;;1.40;;
70800;SDS011;59616;52.170;5.386;2023-03-14T16:02:45;3.85;;;0.80;;
70800;SDS011;59616;52.170;5.386;2023-03-14T16:05:12;6.35;;;1.35;;
70800;SDS011;59616;52.170;5.386;2023-03-14T16:07:39;6.43;;;1.10;;
70800;SDS011;59616;52.170;5.386;2023-03-14T16:10:07;7.07;;;0.95;;